sensor_id;sensor_type;location;lat;lon;timestamp;temperature;humidity
19397;DHT22;9834;48.076;11.878;2023-01-29T00:01:37;0.40;99.90
19397;DHT22;9834;48.076;11.878;2023-01-29T00:04:06;0.50;99.90
19397;DHT22;9834;48.076;11.878;2023-01-29T00:06:33;0.40;99.90
19397;DHT22;9834;48.076;11.878;2023-01-29T00:09:00;0.40;99.90
19397;DHT22;9834;48.076;11.878;2023-01-29T00:11:27;0.40;99.90
19397;DHT22;9834;48.076;11.878;2023-01-29T00:13:56;0.40;99.90
19397;DHT22;9834;48.076;11.878;2023-01-29T00:16:24;0.30;99.90
19397;DHT22;9834;48.076;11.878;2023-01-29T00:18:51;0.30;99.90
19397;DHT22;9834;48.076;11.878;2023-01-29T00:21:20;0.40;99.90
19397;DHT22;9834;48.076;11.878;2023-01-29T00:23:48;0.30;99.90
19397;DHT22;9834;48.076;11.878;2023-01-29T00:26:15;0.30;99.90
19397;DHT22;9834;48.076;11.878;2023-01-29T00:28:43;0.30;99.90
19397;DHT22;9834;48.076;11.878;2023-01-29T00:31:11;0.30;99.90
19397;DHT22;9834;48.076;11.878;2023-01-29T00:33:39;0.30;99.90
19397;DHT22;9834;48.076;11.878;2023-01-29T00:36:08;0.20;99.90
19397;DHT22;9834;48.076;11.878;2023-01-29T00:38:37;0.30;99.90
19397;DHT22;9834;48.076;11.878;2023-01-29T00:41:05;0.20;99.90
19397;DHT22;9834;48.076;11.878;2023-01-29T00:43:50;0.20;99.90
19397;DHT22;9834;48.076;11.878;2023-01-29T00:46:35;0.30;99.90
19397;DHT22;9834;48.076;11.878;2023-01-29T00:49:02;0.20;99.90
19397;DHT22;9834;48.076;11.878;2023-01-29T00:51:29;0.20;99.90
19397;DHT22;9834;48.076;11.878;2023-01-29T00:53:58;0.20;99.90
19397;DHT22;9834;48.076;11.878;2023-01-29T00:56:25;0.20;99.90
19397;DHT22;9834;48.076;11.878;2023-01-29T00:58:52;0.30;99.90
19397;DHT22;9834;48.076;11.878;2023-01-29T01:01:19;0.30;99.90
19397;DHT22;9834;48.076;11.878;2023-01-29T01:04:09;0.20;99.90
19397;DHT22;9834;48.076;11.878;2023-01-29T01:06:36;0.20;99.90
19397;DHT22;9834;48.076;11.878;2023-01-29T01:09:05;0.20;99.90
19397;DHT22;9834;48.076;11.878;2023-01-29T01:11:50;0.20;99.90
19397;DHT22;9834;48.076;11.878;2023-01-29T01:14:17;0.20;99.90
19397;DHT22;9834;48.076;11.878;2023-01-29T01:16:45;0.60;99.90
19397;DHT22;9834;48.076;11.878;2023-01-29T01:19:13;0.30;99.90
19397;DHT22;9834;48.076;11.878;2023-01-29T01:21:40;0.30;99.90
19397;DHT22;9834;48.076;11.878;2023-01-29T01:24:11;0.30;99.90
19397;DHT22;9834;48.076;11.878;2023-01-29T01:26:38;0.30;99.90
19397;DHT22;9834;48.076;11.878;2023-01-29T01:29:05;0.20;99.90
19397;DHT22;9834;48.076;11.878;2023-01-29T01:31:32;0.20;99.90
19397;DHT22;9834;48.076;11.878;2023-01-29T01:33:59;0.30;99.90
19397;DHT22;9834;48.076;11.878;2023-01-29T01:36:26;0.30;99.90
19397;DHT22;9834;48.076;11.878;2023-01-29T01:38:53;0.30;99.90
19397;DHT22;9834;48.076;11.878;2023-01-29T01:41:22;0.30;99.90
19397;DHT22;9834;48.076;11.878;2023-01-29T01:43:51;0.30;99.90
19397;DHT22;9834;48.076;11.878;2023-01-29T01:46:19;0.30;99.90
19397;DHT22;9834;48.076;11.878;2023-01-29T01:48:50;0.20;99.90
19397;DHT22;9834;48.076;11.878;2023-01-29T01:51:19;0.20;99.90
19397;DHT22;9834;48.076;11.878;2023-01-29T01:53:51;0.20;99.90
19397;DHT22;9834;48.076;11.878;2023-01-29T01:56:26;0.30;99.90
19397;DHT22;9834;48.076;11.878;2023-01-29T01:59:06;0.20;99.90
19397;DHT22;9834;48.076;11.878;2023-01-29T02:01:35;0.20;99.90
19397;DHT22;9834;48.076;11.878;2023-01-29T02:04:08;0.20;99.90
19397;DHT22;9834;48.076;11.878;2023-01-29T02:06:55;0.30;99.90
19397;DHT22;9834;48.076;11.878;2023-01-29T02:09:47;0.20;99.90
19397;DHT22;9834;48.076;11.878;2023-01-29T02:12:18;0.30;99.90
19397;DHT22;9834;48.076;11.878;2023-01-29T02:14:46;0.20;99.90
19397;DHT22;9834;48.076;11.878;2023-01-29T02:17:14;0.20;99.90
19397;DHT22;9834;48.076;11.878;2023-01-29T02:19:47;0.20;99.90
19397;DHT22;9834;48.076;11.878;2023-01-29T02:22:28;0.30;99.90
19397;DHT22;9834;48.076;11.878;2023-01-29T02:25:32;0.40;99.90
19397;DHT22;9834;48.076;11.878;2023-01-29T02:28:18;0.20;99.90
19397;DHT22;9834;48.076;11.878;2023-01-29T02:30:55;0.30;99.90
19397;DHT22;9834;48.076;11.878;2023-01-29T02:33:30;0.20;99.90
19397;DHT22;9834;48.076;11.878;2023-01-29T02:36:11;0.20;99.90
19397;DHT22;9834;48.076;11.878;2023-01-29T02:38:46;0.30;99.90
19397;DHT22;9834;48.076;11.878;2023-01-29T02:41:23;0.30;99.90
19397;DHT22;9834;48.076;11.878;2023-01-29T02:43:58;0.30;99.90
19397;DHT22;9834;48.076;11.878;2023-01-29T02:46:33;0.20;99.90
19397;DHT22;9834;48.076;11.878;2023-01-29T02:49:07;0.30;99.90
19397;DHT22;9834;48.076;11.878;2023-01-29T02:51:41;0.20;99.90
19397;DHT22;9834;48.076;11.878;2023-01-29T02:54:15;0.20;99.90
19397;DHT22;9834;48.076;11.878;2023-01-29T02:56:50;0.20;99.90
19397;DHT22;9834;48.076;11.878;2023-01-29T02:59:20;0.40;99.90
19397;DHT22;9834;48.076;11.878;2023-01-29T03:01:51;0.20;99.90
19397;DHT22;9834;48.076;11.878;2023-01-29T03:04:23;0.40;99.90
19397;DHT22;9834;48.076;11.878;2023-01-29T03:06:53;0.20;99.90
19397;DHT22;9834;48.076;11.878;2023-01-29T03:09:27;0.20;99.90
19397;DHT22;9834;48.076;11.878;2023-01-29T03:12:00;0.20;99.90
19397;DHT22;9834;48.076;11.878;2023-01-29T03:14:45;0.20;99.90
19397;DHT22;9834;48.076;11.878;2023-01-29T03:17:34;0.30;99.90
19397;DHT22;9834;48.076;11.878;2023-01-29T03:20:07;0.30;99.90
19397;DHT22;9834;48.076;11.878;2023-01-29T03:22:37;0.20;99.90
19397;DHT22;9834;48.076;11.878;2023-01-29T03:25:07;0.20;99.90
19397;DHT22;9834;48.076;11.878;2023-01-29T03:27:56;0.20;99.90
19397;DHT22;9834;48.076;11.878;2023-01-29T03:30:46;0.20;99.90
19397;DHT22;9834;48.076;11.878;2023-01-29T03:33:37;0.30;99.90
19397;DHT22;9834;48.076;11.878;2023-01-29T03:36:12;0.20;99.90
19397;DHT22;9834;48.076;11.878;2023-01-29T03:38:40;0.30;99.90
19397;DHT22;9834;48.076;11.878;2023-01-29T03:41:12;0.20;99.90
19397;DHT22;9834;48.076;11.878;2023-01-29T03:43:49;0.30;99.90
19397;DHT22;9834;48.076;11.878;2023-01-29T03:46:22;0.30;99.90
19397;DHT22;9834;48.076;11.878;2023-01-29T03:48:58;0.30;99.90
19397;DHT22;9834;48.076;11.878;2023-01-29T03:51:31;0.30;99.90
19397;DHT22;9834;48.076;11.878;2023-01-29T03:54:05;0.30;99.90
19397;DHT22;9834;48.076;11.878;2023-01-29T03:56:39;0.30;99.90
19397;DHT22;9834;48.076;11.878;2023-01-29T03:59:17;0.30;99.90
19397;DHT22;9834;48.076;11.878;2023-01-29T04:01:49;0.30;99.90
19397;DHT22;9834;48.076;11.878;2023-01-29T04:04:21;0.30;99.90
19397;DHT22;9834;48.076;11.878;2023-01-29T04:06:51;0.30;99.90
19397;DHT22;9834;48.076;11.878;2023-01-29T04:09:27;0.40;99.90
19397;DHT22;9834;48.076;11.878;2023-01-29T04:12:00;0.30;99.90
19397;DHT22;9834;48.076;11.878;2023-01-29T04:14:28;0.30;99.90
19397;DHT22;9834;48.076;11.878;2023-01-29T04:17:00;0.30;99.90
19397;DHT22;9834;48.076;11.878;2023-01-29T04:19:28;0.20;99.90
19397;DHT22;9834;48.076;11.878;2023-01-29T04:22:02;0.30;99.90
19397;DHT22;9834;48.076;11.878;2023-01-29T04:24:32;0.20;99.90
19397;DHT22;9834;48.076;11.878;2023-01-29T04:27:09;0.30;99.90
19397;DHT22;9834;48.076;11.878;2023-01-29T04:29:49;0.30;99.90
19397;DHT22;9834;48.076;11.878;2023-01-29T04:32:27;0.40;99.90
19397;DHT22;9834;48.076;11.878;2023-01-29T04:35:00;0.30;99.90
19397;DHT22;9834;48.076;11.878;2023-01-29T04:37:35;0.30;99.90
19397;DHT22;9834;48.076;11.878;2023-01-29T04:40:16;0.40;99.90
19397;DHT22;9834;48.076;11.878;2023-01-29T04:42:50;0.30;99.90
19397;DHT22;9834;48.076;11.878;2023-01-29T04:45:26;0.30;99.90
19397;DHT22;9834;48.076;11.878;2023-01-29T04:48:05;0.30;99.90
19397;DHT22;9834;48.076;11.878;2023-01-29T04:50:38;0.30;99.90
19397;DHT22;9834;48.076;11.878;2023-01-29T04:53:14;0.40;99.90
19397;DHT22;9834;48.076;11.878;2023-01-29T04:55:46;0.30;99.90
19397;DHT22;9834;48.076;11.878;2023-01-29T04:58:20;0.30;99.90
19397;DHT22;9834;48.076;11.878;2023-01-29T05:00:53;0.30;99.90
19397;DHT22;9834;48.076;11.878;2023-01-29T05:03:24;0.30;99.90
19397;DHT22;9834;48.076;11.878;2023-01-29T05:05:53;0.30;99.90
19397;DHT22;9834;48.076;11.878;2023-01-29T05:08:23;0.30;99.90
19397;DHT22;9834;48.076;11.878;2023-01-29T05:10:52;0.50;99.90
19397;DHT22;9834;48.076;11.878;2023-01-29T05:13:21;0.30;99.90
19397;DHT22;9834;48.076;11.878;2023-01-29T05:15:52;0.30;99.90
19397;DHT22;9834;48.076;11.878;2023-01-29T05:18:23;0.30;99.90
19397;DHT22;9834;48.076;11.878;2023-01-29T05:20:50;0.30;99.90
19397;DHT22;9834;48.076;11.878;2023-01-29T05:23:18;0.30;99.90
19397;DHT22;9834;48.076;11.878;2023-01-29T05:25:46;0.30;99.90
19397;DHT22;9834;48.076;11.878;2023-01-29T05:28:13;0.30;99.90
19397;DHT22;9834;48.076;11.878;2023-01-29T05:30:42;0.30;99.90
19397;DHT22;9834;48.076;11.878;2023-01-29T05:33:12;0.30;99.90
19397;DHT22;9834;48.076;11.878;2023-01-29T05:35:41;0.30;99.90
19397;DHT22;9834;48.076;11.878;2023-01-29T05:38:09;0.30;99.90
19397;DHT22;9834;48.076;11.878;2023-01-29T05:40:36;0.30;99.90
19397;DHT22;9834;48.076;11.878;2023-01-29T05:43:03;0.40;99.90
19397;DHT22;9834;48.076;11.878;2023-01-29T05:45:31;0.30;99.90
19397;DHT22;9834;48.076;11.878;2023-01-29T05:47:59;0.40;99.90
19397;DHT22;9834;48.076;11.878;2023-01-29T05:50:26;0.30;99.90
19397;DHT22;9834;48.076;11.878;2023-01-29T05:52:59;0.30;99.90
19397;DHT22;9834;48.076;11.878;2023-01-29T05:55:27;0.30;99.90
19397;DHT22;9834;48.076;11.878;2023-01-29T05:57:55;0.30;99.90
19397;DHT22;9834;48.076;11.878;2023-01-29T06:00:22;0.30;99.90
19397;DHT22;9834;48.076;11.878;2023-01-29T06:02:49;0.30;99.90
19397;DHT22;9834;48.076;11.878;2023-01-29T06:05:16;0.40;99.90
19397;DHT22;9834;48.076;11.878;2023-01-29T06:07:43;0.40;99.90
19397;DHT22;9834;48.076;11.878;2023-01-29T06:10:14;0.40;99.90
19397;DHT22;9834;48.076;11.878;2023-01-29T06:12:43;0.40;99.90
19397;DHT22;9834;48.076;11.878;2023-01-29T06:15:11;0.30;99.90
19397;DHT22;9834;48.076;11.878;2023-01-29T06:17:40;0.30;99.90
19397;DHT22;9834;48.076;11.878;2023-01-29T06:20:09;0.40;99.90
19397;DHT22;9834;48.076;11.878;2023-01-29T06:22:36;0.30;99.90
19397;DHT22;9834;48.076;11.878;2023-01-29T06:25:04;0.30;99.90
19397;DHT22;9834;48.076;11.878;2023-01-29T06:27:33;0.30;99.90
19397;DHT22;9834;48.076;11.878;2023-01-29T06:30:00;0.30;99.90
19397;DHT22;9834;48.076;11.878;2023-01-29T06:32:27;0.30;99.90
19397;DHT22;9834;48.076;11.878;2023-01-29T06:34:54;0.30;99.90
19397;DHT22;9834;48.076;11.878;2023-01-29T06:37:20;0.40;99.90
19397;DHT22;9834;48.076;11.878;2023-01-29T06:39:47;0.30;99.90
19397;DHT22;9834;48.076;11.878;2023-01-29T06:42:15;0.30;99.90
19397;DHT22;9834;48.076;11.878;2023-01-29T06:44:43;0.30;99.90
19397;DHT22;9834;48.076;11.878;2023-01-29T06:47:10;0.30;99.90
19397;DHT22;9834;48.076;11.878;2023-01-29T06:49:37;0.30;99.90
19397;DHT22;9834;48.076;11.878;2023-01-29T06:52:04;0.30;99.90
19397;DHT22;9834;48.076;11.878;2023-01-29T06:54:31;0.40;99.90
19397;DHT22;9834;48.076;11.878;2023-01-29T06:56:58;0.30;99.90
19397;DHT22;9834;48.076;11.878;2023-01-29T06:59:25;0.30;99.90
19397;DHT22;9834;48.076;11.878;2023-01-29T07:01:53;0.40;99.90
19397;DHT22;9834;48.076;11.878;2023-01-29T07:04:20;0.40;99.90
19397;DHT22;9834;48.076;11.878;2023-01-29T07:06:47;0.40;99.90
19397;DHT22;9834;48.076;11.878;2023-01-29T07:09:14;0.40;99.90
19397;DHT22;9834;48.076;11.878;2023-01-29T07:11:41;0.40;99.90
19397;DHT22;9834;48.076;11.878;2023-01-29T07:14:08;0.40;99.90
19397;DHT22;9834;48.076;11.878;2023-01-29T07:16:35;0.40;99.90
19397;DHT22;9834;48.076;11.878;2023-01-29T07:19:03;0.40;99.90
19397;DHT22;9834;48.076;11.878;2023-01-29T07:21:30;0.40;99.90
19397;DHT22;9834;48.076;11.878;2023-01-29T07:23:57;0.40;99.90
19397;DHT22;9834;48.076;11.878;2023-01-29T07:26:24;0.50;99.90
19397;DHT22;9834;48.076;11.878;2023-01-29T07:28:51;0.50;99.90
19397;DHT22;9834;48.076;11.878;2023-01-29T07:31:18;0.50;99.90
19397;DHT22;9834;48.076;11.878;2023-01-29T07:33:46;0.60;99.90
19397;DHT22;9834;48.076;11.878;2023-01-29T07:36:14;0.40;99.90
19397;DHT22;9834;48.076;11.878;2023-01-29T07:38:41;0.30;99.90
19397;DHT22;9834;48.076;11.878;2023-01-29T07:41:09;0.40;99.90
19397;DHT22;9834;48.076;11.878;2023-01-29T07:43:37;0.40;99.90
19397;DHT22;9834;48.076;11.878;2023-01-29T07:46:04;0.60;99.90
19397;DHT22;9834;48.076;11.878;2023-01-29T07:48:31;0.60;99.90
19397;DHT22;9834;48.076;11.878;2023-01-29T07:50:58;0.70;99.90
19397;DHT22;9834;48.076;11.878;2023-01-29T07:53:27;0.70;99.90
19397;DHT22;9834;48.076;11.878;2023-01-29T07:55:54;0.80;99.90
19397;DHT22;9834;48.076;11.878;2023-01-29T07:58:21;0.80;99.90
19397;DHT22;9834;48.076;11.878;2023-01-29T08:00:48;0.90;99.90
19397;DHT22;9834;48.076;11.878;2023-01-29T08:03:17;1.00;99.90
19397;DHT22;9834;48.076;11.878;2023-01-29T08:05:45;1.10;99.90
19397;DHT22;9834;48.076;11.878;2023-01-29T08:08:12;1.10;99.90
19397;DHT22;9834;48.076;11.878;2023-01-29T08:10:41;1.10;99.90
19397;DHT22;9834;48.076;11.878;2023-01-29T08:13:08;1.20;99.90
19397;DHT22;9834;48.076;11.878;2023-01-29T08:15:36;1.10;99.90
19397;DHT22;9834;48.076;11.878;2023-01-29T08:18:03;1.10;99.90
19397;DHT22;9834;48.076;11.878;2023-01-29T08:20:30;1.20;99.90
19397;DHT22;9834;48.076;11.878;2023-01-29T08:23:01;1.30;99.90
19397;DHT22;9834;48.076;11.878;2023-01-29T08:25:29;1.40;99.90
19397;DHT22;9834;48.076;11.878;2023-01-29T08:27:58;1.40;99.90
19397;DHT22;9834;48.076;11.878;2023-01-29T08:30:26;1.40;99.90
19397;DHT22;9834;48.076;11.878;2023-01-29T08:32:53;1.30;99.90
19397;DHT22;9834;48.076;11.878;2023-01-29T08:35:20;1.30;99.90
19397;DHT22;9834;48.076;11.878;2023-01-29T08:37:53;1.40;99.90
19397;DHT22;9834;48.076;11.878;2023-01-29T08:40:21;1.50;99.90
19397;DHT22;9834;48.076;11.878;2023-01-29T08:42:48;1.70;99.90
19397;DHT22;9834;48.076;11.878;2023-01-29T08:45:16;1.80;99.90
19397;DHT22;9834;48.076;11.878;2023-01-29T08:47:46;2.00;99.90
19397;DHT22;9834;48.076;11.878;2023-01-29T08:50:14;2.00;99.90
19397;DHT22;9834;48.076;11.878;2023-01-29T08:52:41;2.10;99.90
19397;DHT22;9834;48.076;11.878;2023-01-29T08:55:09;2.10;99.90
19397;DHT22;9834;48.076;11.878;2023-01-29T08:57:36;2.10;99.90
19397;DHT22;9834;48.076;11.878;2023-01-29T09:00:04;2.10;99.90
19397;DHT22;9834;48.076;11.878;2023-01-29T09:02:33;2.20;99.90
19397;DHT22;9834;48.076;11.878;2023-01-29T09:05:00;2.30;99.90
19397;DHT22;9834;48.076;11.878;2023-01-29T09:07:28;2.20;99.90
19397;DHT22;9834;48.076;11.878;2023-01-29T09:09:56;2.20;99.90
19397;DHT22;9834;48.076;11.878;2023-01-29T09:12:23;2.10;99.90
19397;DHT22;9834;48.076;11.878;2023-01-29T09:14:50;2.10;99.90
19397;DHT22;9834;48.076;11.878;2023-01-29T09:17:17;1.90;99.50
19397;DHT22;9834;48.076;11.878;2023-01-29T09:19:46;1.90;99.60
19397;DHT22;9834;48.076;11.878;2023-01-29T09:22:13;1.80;99.40
19397;DHT22;9834;48.076;11.878;2023-01-29T09:24:40;1.80;99.90
19397;DHT22;9834;48.076;11.878;2023-01-29T09:27:07;1.90;99.50
19397;DHT22;9834;48.076;11.878;2023-01-29T09:29:34;2.00;99.90
19397;DHT22;9834;48.076;11.878;2023-01-29T09:32:02;2.10;99.90
19397;DHT22;9834;48.076;11.878;2023-01-29T09:34:29;2.10;99.90
19397;DHT22;9834;48.076;11.878;2023-01-29T09:36:58;2.20;99.90
19397;DHT22;9834;48.076;11.878;2023-01-29T09:39:26;2.40;99.50
19397;DHT22;9834;48.076;11.878;2023-01-29T09:41:58;2.30;99.50
19397;DHT22;9834;48.076;11.878;2023-01-29T09:44:44;2.30;99.50
19397;DHT22;9834;48.076;11.878;2023-01-29T09:47:15;2.20;99.10
19397;DHT22;9834;48.076;11.878;2023-01-29T09:49:47;2.20;98.40
19397;DHT22;9834;48.076;11.878;2023-01-29T09:52:21;2.10;97.80
19397;DHT22;9834;48.076;11.878;2023-01-29T09:54:56;2.00;98.40
19397;DHT22;9834;48.076;11.878;2023-01-29T09:57:30;1.80;98.10
19397;DHT22;9834;48.076;11.878;2023-01-29T09:59:59;1.90;98.40
19397;DHT22;9834;48.076;11.878;2023-01-29T10:02:47;2.00;98.30
19397;DHT22;9834;48.076;11.878;2023-01-29T10:08:39;2.10;99.40
19397;DHT22;9834;48.076;11.878;2023-01-29T10:11:20;2.10;98.70
19397;DHT22;9834;48.076;11.878;2023-01-29T10:13:58;2.00;99.90
19397;DHT22;9834;48.076;11.878;2023-01-29T10:16:39;1.90;99.80
19397;DHT22;9834;48.076;11.878;2023-01-29T10:19:33;1.90;99.90
19397;DHT22;9834;48.076;11.878;2023-01-29T10:22:20;1.70;99.90
19397;DHT22;9834;48.076;11.878;2023-01-29T10:24:57;1.70;99.90
19397;DHT22;9834;48.076;11.878;2023-01-29T10:27:31;1.80;99.90
19397;DHT22;9834;48.076;11.878;2023-01-29T10:30:00;1.90;99.90
19397;DHT22;9834;48.076;11.878;2023-01-29T10:32:28;2.10;99.90
19397;DHT22;9834;48.076;11.878;2023-01-29T10:35:03;2.10;99.90
19397;DHT22;9834;48.076;11.878;2023-01-29T10:37:36;2.10;99.90
19397;DHT22;9834;48.076;11.878;2023-01-29T10:40:17;2.20;99.90
19397;DHT22;9834;48.076;11.878;2023-01-29T10:42:47;2.20;99.90
19397;DHT22;9834;48.076;11.878;2023-01-29T10:45:20;2.40;99.50
19397;DHT22;9834;48.076;11.878;2023-01-29T10:48:07;2.50;97.50
19397;DHT22;9834;48.076;11.878;2023-01-29T10:50:46;2.60;97.40
19397;DHT22;9834;48.076;11.878;2023-01-29T10:53:36;2.60;96.80
19397;DHT22;9834;48.076;11.878;2023-01-29T10:56:25;2.70;96.70
19397;DHT22;9834;48.076;11.878;2023-01-29T10:58:57;2.70;96.50
19397;DHT22;9834;48.076;11.878;2023-01-29T11:01:25;2.70;96.40
19397;DHT22;9834;48.076;11.878;2023-01-29T11:03:57;2.80;96.70
19397;DHT22;9834;48.076;11.878;2023-01-29T11:06:30;2.80;95.60
19397;DHT22;9834;48.076;11.878;2023-01-29T11:09:03;2.90;96.40
19397;DHT22;9834;48.076;11.878;2023-01-29T11:11:39;2.90;96.80
19397;DHT22;9834;48.076;11.878;2023-01-29T11:14:12;2.90;96.20
19397;DHT22;9834;48.076;11.878;2023-01-29T11:16:42;2.90;96.20
19397;DHT22;9834;48.076;11.878;2023-01-29T11:19:10;3.20;97.30
19397;DHT22;9834;48.076;11.878;2023-01-29T11:21:50;3.00;96.70
19397;DHT22;9834;48.076;11.878;2023-01-29T11:24:18;3.10;96.10
19397;DHT22;9834;48.076;11.878;2023-01-29T11:26:48;3.20;96.60
19397;DHT22;9834;48.076;11.878;2023-01-29T11:29:38;3.10;96.10
19397;DHT22;9834;48.076;11.878;2023-01-29T11:32:11;3.10;96.60
19397;DHT22;9834;48.076;11.878;2023-01-29T11:34:59;3.00;95.70
19397;DHT22;9834;48.076;11.878;2023-01-29T11:37:36;3.10;96.10
19397;DHT22;9834;48.076;11.878;2023-01-29T11:40:32;3.00;95.50
19397;DHT22;9834;48.076;11.878;2023-01-29T11:43:22;3.00;95.50
19397;DHT22;9834;48.076;11.878;2023-01-29T11:45:55;2.90;94.80
19397;DHT22;9834;48.076;11.878;2023-01-29T11:48:29;3.00;95.00
19397;DHT22;9834;48.076;11.878;2023-01-29T11:50:59;2.80;95.10
19397;DHT22;9834;48.076;11.878;2023-01-29T11:53:34;2.80;95.90
19397;DHT22;9834;48.076;11.878;2023-01-29T11:56:04;2.80;95.50
19397;DHT22;9834;48.076;11.878;2023-01-29T11:58:35;2.70;96.10
19397;DHT22;9834;48.076;11.878;2023-01-29T12:01:02;2.70;96.30
19397;DHT22;9834;48.076;11.878;2023-01-29T12:03:33;2.60;96.50
19397;DHT22;9834;48.076;11.878;2023-01-29T12:06:05;2.50;96.70
19397;DHT22;9834;48.076;11.878;2023-01-29T12:08:36;2.60;96.80
19397;DHT22;9834;48.076;11.878;2023-01-29T12:11:07;2.60;96.00
19397;DHT22;9834;48.076;11.878;2023-01-29T12:13:36;2.60;96.20
19397;DHT22;9834;48.076;11.878;2023-01-29T12:16:14;2.70;96.10
19397;DHT22;9834;48.076;11.878;2023-01-29T12:18:47;2.70;96.80
19397;DHT22;9834;48.076;11.878;2023-01-29T12:21:20;2.80;96.60
19397;DHT22;9834;48.076;11.878;2023-01-29T12:23:55;2.90;96.30
19397;DHT22;9834;48.076;11.878;2023-01-29T12:26:27;3.20;95.40
19397;DHT22;9834;48.076;11.878;2023-01-29T12:29:10;3.10;94.70
19397;DHT22;9834;48.076;11.878;2023-01-29T12:31:45;3.00;94.80
19397;DHT22;9834;48.076;11.878;2023-01-29T12:34:22;2.80;95.10
19397;DHT22;9834;48.076;11.878;2023-01-29T12:36:55;2.60;94.90
19397;DHT22;9834;48.076;11.878;2023-01-29T12:39:25;2.60;95.40
19397;DHT22;9834;48.076;11.878;2023-01-29T12:41:54;2.60;95.70
19397;DHT22;9834;48.076;11.878;2023-01-29T12:44:29;2.40;95.80
19397;DHT22;9834;48.076;11.878;2023-01-29T12:46:59;2.40;96.30
19397;DHT22;9834;48.076;11.878;2023-01-29T12:49:32;2.30;96.00
19397;DHT22;9834;48.076;11.878;2023-01-29T12:52:05;2.20;96.70
19397;DHT22;9834;48.076;11.878;2023-01-29T12:54:36;2.20;97.50
19397;DHT22;9834;48.076;11.878;2023-01-29T12:57:14;2.10;97.70
19397;DHT22;9834;48.076;11.878;2023-01-29T12:59:50;1.70;98.20
19397;DHT22;9834;48.076;11.878;2023-01-29T13:02:31;1.70;99.10
19397;DHT22;9834;48.076;11.878;2023-01-29T13:05:03;1.80;99.50
19397;DHT22;9834;48.076;11.878;2023-01-29T13:07:34;1.80;99.10
19397;DHT22;9834;48.076;11.878;2023-01-29T13:10:08;1.90;98.80
19397;DHT22;9834;48.076;11.878;2023-01-29T13:12:38;1.80;98.60
19397;DHT22;9834;48.076;11.878;2023-01-29T13:15:16;1.90;98.80
19397;DHT22;9834;48.076;11.878;2023-01-29T13:17:50;1.90;99.30
19397;DHT22;9834;48.076;11.878;2023-01-29T13:20:23;2.00;98.90
19397;DHT22;9834;48.076;11.878;2023-01-29T13:22:52;1.90;98.90
19397;DHT22;9834;48.076;11.878;2023-01-29T13:25:20;2.00;98.80
19397;DHT22;9834;48.076;11.878;2023-01-29T13:27:48;2.10;98.40
19397;DHT22;9834;48.076;11.878;2023-01-29T13:30:28;1.90;98.50
19397;DHT22;9834;48.076;11.878;2023-01-29T13:32:57;1.90;99.00
19397;DHT22;9834;48.076;11.878;2023-01-29T13:35:34;2.00;99.40
19397;DHT22;9834;48.076;11.878;2023-01-29T13:38:03;2.00;98.80
19397;DHT22;9834;48.076;11.878;2023-01-29T13:40:31;2.00;98.30
19397;DHT22;9834;48.076;11.878;2023-01-29T13:43:00;1.90;98.40
19397;DHT22;9834;48.076;11.878;2023-01-29T13:45:33;1.90;99.20
19397;DHT22;9834;48.076;11.878;2023-01-29T13:48:09;1.90;99.10
19397;DHT22;9834;48.076;11.878;2023-01-29T13:50:39;2.10;99.10
19397;DHT22;9834;48.076;11.878;2023-01-29T13:53:19;2.20;99.40
19397;DHT22;9834;48.076;11.878;2023-01-29T13:55:47;2.30;99.00
19397;DHT22;9834;48.076;11.878;2023-01-29T13:58:15;2.10;98.40
19397;DHT22;9834;48.076;11.878;2023-01-29T14:00:53;1.90;99.30
19397;DHT22;9834;48.076;11.878;2023-01-29T14:03:41;1.80;99.80
19397;DHT22;9834;48.076;11.878;2023-01-29T14:06:08;1.70;99.90
19397;DHT22;9834;48.076;11.878;2023-01-29T14:08:37;1.50;99.90
19397;DHT22;9834;48.076;11.878;2023-01-29T14:11:27;1.50;99.90
19397;DHT22;9834;48.076;11.878;2023-01-29T14:13:58;1.30;99.90
19397;DHT22;9834;48.076;11.878;2023-01-29T14:16:33;1.20;99.90
19397;DHT22;9834;48.076;11.878;2023-01-29T14:19:03;1.20;99.90
19397;DHT22;9834;48.076;11.878;2023-01-29T14:21:32;1.30;99.90
19397;DHT22;9834;48.076;11.878;2023-01-29T14:24:08;1.20;99.90
19397;DHT22;9834;48.076;11.878;2023-01-29T14:26:42;1.20;99.90
19397;DHT22;9834;48.076;11.878;2023-01-29T14:29:17;1.20;99.90
19397;DHT22;9834;48.076;11.878;2023-01-29T14:31:49;1.20;99.90
19397;DHT22;9834;48.076;11.878;2023-01-29T14:34:22;1.20;99.90
19397;DHT22;9834;48.076;11.878;2023-01-29T14:36:54;1.30;99.90
19397;DHT22;9834;48.076;11.878;2023-01-29T14:39:34;1.30;99.90
19397;DHT22;9834;48.076;11.878;2023-01-29T14:42:04;1.20;99.90
19397;DHT22;9834;48.076;11.878;2023-01-29T14:44:47;1.10;99.90
19397;DHT22;9834;48.076;11.878;2023-01-29T14:47:20;1.10;99.90
19397;DHT22;9834;48.076;11.878;2023-01-29T14:49:52;1.00;99.90
19397;DHT22;9834;48.076;11.878;2023-01-29T14:52:23;0.90;99.90
19397;DHT22;9834;48.076;11.878;2023-01-29T14:54:58;0.90;99.90
19397;DHT22;9834;48.076;11.878;2023-01-29T14:57:27;0.90;99.90
19397;DHT22;9834;48.076;11.878;2023-01-29T14:59:56;1.00;99.90
19397;DHT22;9834;48.076;11.878;2023-01-29T15:02:29;0.70;99.90
19397;DHT22;9834;48.076;11.878;2023-01-29T15:05:03;0.70;99.90
19397;DHT22;9834;48.076;11.878;2023-01-29T15:07:36;0.70;99.90
19397;DHT22;9834;48.076;11.878;2023-01-29T15:10:15;0.70;99.90
19397;DHT22;9834;48.076;11.878;2023-01-29T15:12:46;0.80;99.90
19397;DHT22;9834;48.076;11.878;2023-01-29T15:15:17;0.90;99.90
19397;DHT22;9834;48.076;11.878;2023-01-29T15:17:54;0.80;99.90
19397;DHT22;9834;48.076;11.878;2023-01-29T15:20:26;0.70;99.90
19397;DHT22;9834;48.076;11.878;2023-01-29T15:22:54;0.80;99.90
19397;DHT22;9834;48.076;11.878;2023-01-29T15:25:21;0.80;99.90
19397;DHT22;9834;48.076;11.878;2023-01-29T15:27:49;0.70;99.90
19397;DHT22;9834;48.076;11.878;2023-01-29T15:30:18;0.70;99.90
19397;DHT22;9834;48.076;11.878;2023-01-29T15:32:47;0.70;99.90
19397;DHT22;9834;48.076;11.878;2023-01-29T15:35:26;0.70;99.90
19397;DHT22;9834;48.076;11.878;2023-01-29T15:38:05;0.70;99.90
19397;DHT22;9834;48.076;11.878;2023-01-29T15:40:33;0.70;99.90
19397;DHT22;9834;48.076;11.878;2023-01-29T15:43:00;0.70;99.90
19397;DHT22;9834;48.076;11.878;2023-01-29T15:45:28;0.70;99.90
19397;DHT22;9834;48.076;11.878;2023-01-29T15:48:01;0.90;99.90
19397;DHT22;9834;48.076;11.878;2023-01-29T15:50:33;0.70;99.90
19397;DHT22;9834;48.076;11.878;2023-01-29T15:53:05;0.70;99.90
19397;DHT22;9834;48.076;11.878;2023-01-29T15:55:32;0.80;99.90
19397;DHT22;9834;48.076;11.878;2023-01-29T15:58:01;0.70;99.90
19397;DHT22;9834;48.076;11.878;2023-01-29T16:00:28;0.80;99.90
19397;DHT22;9834;48.076;11.878;2023-01-29T16:02:56;0.70;99.90
19397;DHT22;9834;48.076;11.878;2023-01-29T16:05:27;0.70;99.90
19397;DHT22;9834;48.076;11.878;2023-01-29T16:07:56;0.60;99.90
19397;DHT22;9834;48.076;11.878;2023-01-29T16:10:27;0.60;99.90
19397;DHT22;9834;48.076;11.878;2023-01-29T16:12:55;0.50;99.90
19397;DHT22;9834;48.076;11.878;2023-01-29T16:15:28;0.50;99.90
19397;DHT22;9834;48.076;11.878;2023-01-29T16:17:57;0.50;99.90